sensor_id;sensor_type;location;lat;lon;timestamp;P1;durP1;ratioP1;P2;durP2;ratioP2
58139;SDS011;53185;47.378;18.922;2022-10-16T00:00:54;13.00;;;7.20;;
58139;SDS011;53185;47.378;18.922;2022-10-16T00:03:21;15.48;;;7.35;;
58139;SDS011;53185;47.378;18.922;2022-10-16T00:05:58;11.43;;;7.25;;
58139;SDS011;53185;47.378;18.922;2022-10-16T00:08:26;19.23;;;7.75;;
58139;SDS011;53185;47.378;18.922;2022-10-16T00:10:58;14.27;;;7.40;;
58139;SDS011;53185;47.378;18.922;2022-10-16T00:13:35;16.62;;;7.90;;
58139;SDS011;53185;47.378;18.922;2022-10-16T00:16:03;19.12;;;8.00;;
58139;SDS011;53185;47.378;18.922;2022-10-16T00:18:31;35.80;;;8.73;;
58139;SDS011;53185;47.378;18.922;2022-10-16T00:21:05;15.27;;;8.13;;
58139;SDS011;53185;47.378;18.922;2022-10-16T00:23:53;17.17;;;7.40;;
58139;SDS011;53185;47.378;18.922;2022-10-16T00:26:21;20.65;;;8.05;;
58139;SDS011;53185;47.378;18.922;2022-10-16T00:28:50;16.15;;;7.90;;
58139;SDS011;53185;47.378;18.922;2022-10-16T00:31:18;17.25;;;7.82;;
58139;SDS011;53185;47.378;18.922;2022-10-16T00:33:46;14.43;;;6.45;;
58139;SDS011;53185;47.378;18.922;2022-10-16T00:36:16;17.75;;;8.13;;
58139;SDS011;53185;47.378;18.922;2022-10-16T00:38:44;16.98;;;7.15;;
58139;SDS011;53185;47.378;18.922;2022-10-16T00:41:13;11.27;;;6.78;;
58139;SDS011;53185;47.378;18.922;2022-10-16T00:43:42;12.25;;;6.93;;
58139;SDS011;53185;47.378;18.922;2022-10-16T00:54:19;14.23;;;6.80;;
58139;SDS011;53185;47.378;18.922;2022-10-16T00:56:47;11.80;;;6.57;;
58139;SDS011;53185;47.378;18.922;2022-10-16T00:59:16;16.17;;;7.50;;
58139;SDS011;53185;47.378;18.922;2022-10-16T01:01:46;19.60;;;7.75;;
58139;SDS011;53185;47.378;18.922;2022-10-16T01:04:13;19.58;;;8.43;;
58139;SDS011;53185;47.378;18.922;2022-10-16T01:06:49;16.87;;;8.40;;
58139;SDS011;53185;47.378;18.922;2022-10-16T01:12:35;16.73;;;9.30;;
58139;SDS011;53185;47.378;18.922;2022-10-16T01:18:21;14.30;;;7.43;;
58139;SDS011;53185;47.378;18.922;2022-10-16T01:20:54;15.68;;;6.78;;
58139;SDS011;53185;47.378;18.922;2022-10-16T01:23:35;13.52;;;6.70;;
58139;SDS011;53185;47.378;18.922;2022-10-16T01:26:11;13.52;;;6.72;;
58139;SDS011;53185;47.378;18.922;2022-10-16T01:31:17;15.77;;;6.90;;
58139;SDS011;53185;47.378;18.922;2022-10-16T01:33:46;11.45;;;6.87;;
58139;SDS011;53185;47.378;18.922;2022-10-16T01:36:19;19.92;;;6.60;;
58139;SDS011;53185;47.378;18.922;2022-10-16T01:38:52;18.65;;;7.18;;
58139;SDS011;53185;47.378;18.922;2022-10-16T01:41:22;14.18;;;6.87;;
58139;SDS011;53185;47.378;18.922;2022-10-16T01:46:20;13.68;;;6.80;;
58139;SDS011;53185;47.378;18.922;2022-10-16T01:48:48;14.10;;;6.93;;
58139;SDS011;53185;47.378;18.922;2022-10-16T01:51:16;12.85;;;6.82;;
58139;SDS011;53185;47.378;18.922;2022-10-16T01:53:45;13.98;;;6.87;;
58139;SDS011;53185;47.378;18.922;2022-10-16T01:56:15;16.65;;;7.28;;
58139;SDS011;53185;47.378;18.922;2022-10-16T01:58:51;12.90;;;6.20;;
58139;SDS011;53185;47.378;18.922;2022-10-16T02:01:22;13.25;;;7.10;;
58139;SDS011;53185;47.378;18.922;2022-10-16T02:03:51;10.35;;;6.70;;
58139;SDS011;53185;47.378;18.922;2022-10-16T02:06:18;18.80;;;7.32;;
58139;SDS011;53185;47.378;18.922;2022-10-16T02:08:46;14.98;;;6.93;;
58139;SDS011;53185;47.378;18.922;2022-10-16T02:11:13;13.73;;;7.70;;
58139;SDS011;53185;47.378;18.922;2022-10-16T02:13:46;18.20;;;6.82;;
58139;SDS011;53185;47.378;18.922;2022-10-16T02:16:15;14.00;;;6.32;;
58139;SDS011;53185;47.378;18.922;2022-10-16T02:18:42;14.68;;;6.87;;
58139;SDS011;53185;47.378;18.922;2022-10-16T02:21:14;14.90;;;7.43;;
58139;SDS011;53185;47.378;18.922;2022-10-16T02:26:28;17.00;;;6.60;;
58139;SDS011;53185;47.378;18.922;2022-10-16T02:28:59;16.65;;;6.53;;
58139;SDS011;53185;47.378;18.922;2022-10-16T02:31:28;11.48;;;7.20;;
58139;SDS011;53185;47.378;18.922;2022-10-16T02:33:58;10.95;;;7.40;;
58139;SDS011;53185;47.378;18.922;2022-10-16T02:36:26;13.85;;;7.53;;
58139;SDS011;53185;47.378;18.922;2022-10-16T02:38:53;12.00;;;6.20;;
58139;SDS011;53185;47.378;18.922;2022-10-16T02:41:21;12.23;;;6.90;;
58139;SDS011;53185;47.378;18.922;2022-10-16T02:43:48;11.85;;;6.55;;
58139;SDS011;53185;47.378;18.922;2022-10-16T02:46:16;14.57;;;7.00;;
58139;SDS011;53185;47.378;18.922;2022-10-16T02:48:44;12.15;;;7.03;;
58139;SDS011;53185;47.378;18.922;2022-10-16T02:51:11;20.17;;;8.35;;
58139;SDS011;53185;47.378;18.922;2022-10-16T02:53:38;14.32;;;7.45;;
58139;SDS011;53185;47.378;18.922;2022-10-16T02:56:05;12.05;;;7.05;;
58139;SDS011;53185;47.378;18.922;2022-10-16T02:58:32;10.38;;;6.70;;
58139;SDS011;53185;47.378;18.922;2022-10-16T03:00:59;11.75;;;7.15;;
58139;SDS011;53185;47.378;18.922;2022-10-16T03:03:26;18.48;;;7.50;;
58139;SDS011;53185;47.378;18.922;2022-10-16T03:05:53;18.05;;;8.65;;
58139;SDS011;53185;47.378;18.922;2022-10-16T03:08:20;11.93;;;7.30;;
58139;SDS011;53185;47.378;18.922;2022-10-16T03:10:50;15.02;;;7.90;;
58139;SDS011;53185;47.378;18.922;2022-10-16T03:13:17;12.13;;;7.05;;
58139;SDS011;53185;47.378;18.922;2022-10-16T03:15:46;12.65;;;6.72;;
58139;SDS011;53185;47.378;18.922;2022-10-16T03:18:14;13.13;;;7.43;;
58139;SDS011;53185;47.378;18.922;2022-10-16T03:20:42;13.27;;;7.03;;
58139;SDS011;53185;47.378;18.922;2022-10-16T03:23:09;15.32;;;7.40;;
58139;SDS011;53185;47.378;18.922;2022-10-16T03:25:36;12.27;;;7.20;;
58139;SDS011;53185;47.378;18.922;2022-10-16T03:28:03;18.27;;;7.43;;
58139;SDS011;53185;47.378;18.922;2022-10-16T03:30:30;16.08;;;8.32;;
58139;SDS011;53185;47.378;18.922;2022-10-16T03:32:57;19.75;;;7.47;;
58139;SDS011;53185;47.378;18.922;2022-10-16T03:35:24;13.00;;;6.80;;
58139;SDS011;53185;47.378;18.922;2022-10-16T03:37:51;17.52;;;7.70;;
58139;SDS011;53185;47.378;18.922;2022-10-16T03:40:18;13.00;;;7.03;;
58139;SDS011;53185;47.378;18.922;2022-10-16T03:42:45;13.52;;;6.45;;
58139;SDS011;53185;47.378;18.922;2022-10-16T03:45:12;16.90;;;6.82;;
58139;SDS011;53185;47.378;18.922;2022-10-16T03:47:39;9.65;;;6.28;;
58139;SDS011;53185;47.378;18.922;2022-10-16T03:50:06;15.07;;;7.18;;
58139;SDS011;53185;47.378;18.922;2022-10-16T03:52:33;13.30;;;6.60;;
58139;SDS011;53185;47.378;18.922;2022-10-16T03:55:01;11.88;;;7.35;;
58139;SDS011;53185;47.378;18.922;2022-10-16T03:57:27;15.38;;;6.75;;
58139;SDS011;53185;47.378;18.922;2022-10-16T03:59:55;16.52;;;6.80;;
58139;SDS011;53185;47.378;18.922;2022-10-16T04:02:22;13.85;;;6.68;;
58139;SDS011;53185;47.378;18.922;2022-10-16T04:04:50;15.50;;;7.22;;
58139;SDS011;53185;47.378;18.922;2022-10-16T04:07:16;15.20;;;7.82;;
58139;SDS011;53185;47.378;18.922;2022-10-16T04:09:43;13.20;;;7.43;;
58139;SDS011;53185;47.378;18.922;2022-10-16T04:12:10;15.13;;;8.25;;
58139;SDS011;53185;47.378;18.922;2022-10-16T04:14:37;24.65;;;10.27;;
58139;SDS011;53185;47.378;18.922;2022-10-16T04:17:04;18.92;;;9.38;;
58139;SDS011;53185;47.378;18.922;2022-10-16T04:19:31;24.60;;;10.20;;
58139;SDS011;53185;47.378;18.922;2022-10-16T04:21:58;33.15;;;10.13;;
58139;SDS011;53185;47.378;18.922;2022-10-16T04:24:25;21.45;;;9.75;;
58139;SDS011;53185;47.378;18.922;2022-10-16T04:26:52;21.70;;;10.45;;
58139;SDS011;53185;47.378;18.922;2022-10-16T04:29:19;23.10;;;10.80;;
58139;SDS011;53185;47.378;18.922;2022-10-16T04:31:46;21.15;;;10.23;;
58139;SDS011;53185;47.378;18.922;2022-10-16T04:34:13;18.35;;;9.07;;
58139;SDS011;53185;47.378;18.922;2022-10-16T04:36:43;15.30;;;8.05;;
58139;SDS011;53185;47.378;18.922;2022-10-16T04:39:10;15.88;;;7.00;;
58139;SDS011;53185;47.378;18.922;2022-10-16T04:41:40;19.92;;;8.38;;
58139;SDS011;53185;47.378;18.922;2022-10-16T04:44:10;14.75;;;8.00;;
58139;SDS011;53185;47.378;18.922;2022-10-16T04:46:40;17.90;;;7.82;;
58139;SDS011;53185;47.378;18.922;2022-10-16T04:49:09;19.98;;;7.90;;
58139;SDS011;53185;47.378;18.922;2022-10-16T04:51:40;18.12;;;7.62;;
58139;SDS011;53185;47.378;18.922;2022-10-16T04:54:09;19.55;;;7.25;;
58139;SDS011;53185;47.378;18.922;2022-10-16T04:56:37;16.42;;;7.40;;
58139;SDS011;53185;47.378;18.922;2022-10-16T04:59:09;17.33;;;7.68;;
58139;SDS011;53185;47.378;18.922;2022-10-16T05:01:39;14.52;;;7.75;;
58139;SDS011;53185;47.378;18.922;2022-10-16T05:04:10;14.00;;;7.22;;
58139;SDS011;53185;47.378;18.922;2022-10-16T05:06:40;13.85;;;7.65;;
58139;SDS011;53185;47.378;18.922;2022-10-16T05:09:10;29.17;;;7.95;;
58139;SDS011;53185;47.378;18.922;2022-10-16T05:11:40;15.68;;;8.35;;
58139;SDS011;53185;47.378;18.922;2022-10-16T05:14:10;13.35;;;7.95;;
58139;SDS011;53185;47.378;18.922;2022-10-16T05:16:42;17.33;;;8.13;;
58139;SDS011;53185;47.378;18.922;2022-10-16T05:19:09;22.08;;;7.00;;
58139;SDS011;53185;47.378;18.922;2022-10-16T05:21:54;16.23;;;7.80;;
58139;SDS011;53185;47.378;18.922;2022-10-16T05:24:21;11.38;;;7.53;;
58139;SDS011;53185;47.378;18.922;2022-10-16T05:26:48;16.30;;;7.75;;
58139;SDS011;53185;47.378;18.922;2022-10-16T05:29:15;16.27;;;7.90;;
58139;SDS011;53185;47.378;18.922;2022-10-16T05:31:42;22.25;;;9.65;;
58139;SDS011;53185;47.378;18.922;2022-10-16T05:34:11;17.00;;;8.88;;
58139;SDS011;53185;47.378;18.922;2022-10-16T05:36:42;15.68;;;7.93;;
58139;SDS011;53185;47.378;18.922;2022-10-16T05:39:08;16.35;;;9.05;;
58139;SDS011;53185;47.378;18.922;2022-10-16T05:41:35;15.35;;;9.18;;
58139;SDS011;53185;47.378;18.922;2022-10-16T05:44:05;17.95;;;7.53;;
58139;SDS011;53185;47.378;18.922;2022-10-16T05:46:33;13.90;;;9.00;;
58139;SDS011;53185;47.378;18.922;2022-10-16T05:49:00;18.10;;;8.20;;
58139;SDS011;53185;47.378;18.922;2022-10-16T05:51:27;14.32;;;8.00;;
58139;SDS011;53185;47.378;18.922;2022-10-16T05:53:54;15.50;;;7.90;;
58139;SDS011;53185;47.378;18.922;2022-10-16T05:56:21;16.02;;;8.68;;
58139;SDS011;53185;47.378;18.922;2022-10-16T05:58:48;17.08;;;8.10;;
58139;SDS011;53185;47.378;18.922;2022-10-16T06:01:16;14.05;;;8.90;;
58139;SDS011;53185;47.378;18.922;2022-10-16T06:03:44;16.42;;;7.85;;
58139;SDS011;53185;47.378;18.922;2022-10-16T06:06:12;21.08;;;9.48;;
58139;SDS011;53185;47.378;18.922;2022-10-16T06:08:47;12.98;;;7.30;;
58139;SDS011;53185;47.378;18.922;2022-10-16T06:11:15;19.33;;;8.52;;
58139;SDS011;53185;47.378;18.922;2022-10-16T06:13:44;22.37;;;8.70;;
58139;SDS011;53185;47.378;18.922;2022-10-16T06:16:12;18.52;;;8.38;;
58139;SDS011;53185;47.378;18.922;2022-10-16T06:18:39;13.05;;;7.53;;
58139;SDS011;53185;47.378;18.922;2022-10-16T06:21:07;11.20;;;7.43;;
58139;SDS011;53185;47.378;18.922;2022-10-16T06:23:36;27.13;;;10.50;;
58139;SDS011;53185;47.378;18.922;2022-10-16T06:26:13;15.30;;;7.10;;
58139;SDS011;53185;47.378;18.922;2022-10-16T06:28:42;12.63;;;8.18;;
58139;SDS011;53185;47.378;18.922;2022-10-16T06:31:10;18.15;;;7.95;;
58139;SDS011;53185;47.378;18.922;2022-10-16T06:33:38;13.00;;;6.78;;
58139;SDS011;53185;47.378;18.922;2022-10-16T06:36:07;13.45;;;7.15;;
58139;SDS011;53185;47.378;18.922;2022-10-16T06:38:38;12.85;;;7.62;;
58139;SDS011;53185;47.378;18.922;2022-10-16T06:41:05;10.82;;;6.60;;
58139;SDS011;53185;47.378;18.922;2022-10-16T06:43:33;14.25;;;7.53;;
58139;SDS011;53185;47.378;18.922;2022-10-16T06:46:04;9.90;;;6.32;;
58139;SDS011;53185;47.378;18.922;2022-10-16T06:48:34;13.10;;;6.85;;
58139;SDS011;53185;47.378;18.922;2022-10-16T06:51:18;14.13;;;6.65;;
58139;SDS011;53185;47.378;18.922;2022-10-16T06:53:47;12.80;;;6.90;;
58139;SDS011;53185;47.378;18.922;2022-10-16T06:56:34;10.38;;;6.78;;
58139;SDS011;53185;47.378;18.922;2022-10-16T06:59:01;8.05;;;5.90;;
58139;SDS011;53185;47.378;18.922;2022-10-16T07:01:29;16.10;;;6.68;;
58139;SDS011;53185;47.378;18.922;2022-10-16T07:03:56;11.88;;;6.20;;
58139;SDS011;53185;47.378;18.922;2022-10-16T07:06:24;11.48;;;6.18;;
58139;SDS011;53185;47.378;18.922;2022-10-16T07:08:51;13.95;;;7.45;;
58139;SDS011;53185;47.378;18.922;2022-10-16T07:11:20;15.32;;;6.80;;
58139;SDS011;53185;47.378;18.922;2022-10-16T07:13:48;9.13;;;5.47;;
58139;SDS011;53185;47.378;18.922;2022-10-16T07:16:22;11.75;;;6.03;;
58139;SDS011;53185;47.378;18.922;2022-10-16T07:18:51;9.35;;;6.00;;
58139;SDS011;53185;47.378;18.922;2022-10-16T07:21:28;13.30;;;6.50;;
58139;SDS011;53185;47.378;18.922;2022-10-16T07:23:57;17.15;;;7.12;;
58139;SDS011;53185;47.378;18.922;2022-10-16T07:26:25;9.20;;;6.15;;
58139;SDS011;53185;47.378;18.922;2022-10-16T07:28:53;13.25;;;6.62;;
58139;SDS011;53185;47.378;18.922;2022-10-16T07:31:21;10.85;;;6.72;;
58139;SDS011;53185;47.378;18.922;2022-10-16T07:33:48;11.27;;;6.75;;
58139;SDS011;53185;47.378;18.922;2022-10-16T07:36:16;10.65;;;6.43;;
58139;SDS011;53185;47.378;18.922;2022-10-16T07:38:44;9.88;;;6.62;;
58139;SDS011;53185;47.378;18.922;2022-10-16T07:41:15;9.15;;;6.53;;
58139;SDS011;53185;47.378;18.922;2022-10-16T07:43:47;13.52;;;6.72;;
58139;SDS011;53185;47.378;18.922;2022-10-16T07:46:19;8.45;;;6.43;;
58139;SDS011;53185;47.378;18.922;2022-10-16T07:48:47;14.18;;;6.82;;
58139;SDS011;53185;47.378;18.922;2022-10-16T07:51:16;10.77;;;6.25;;
58139;SDS011;53185;47.378;18.922;2022-10-16T07:53:44;11.65;;;6.62;;
58139;SDS011;53185;47.378;18.922;2022-10-16T07:56:12;10.45;;;6.50;;
58139;SDS011;53185;47.378;18.922;2022-10-16T07:58:39;12.60;;;7.25;;
58139;SDS011;53185;47.378;18.922;2022-10-16T08:01:07;8.15;;;6.25;;
58139;SDS011;53185;47.378;18.922;2022-10-16T08:03:35;11.40;;;6.90;;
58139;SDS011;53185;47.378;18.922;2022-10-16T08:06:02;10.63;;;6.53;;
58139;SDS011;53185;47.378;18.922;2022-10-16T08:08:30;11.73;;;7.00;;
58139;SDS011;53185;47.378;18.922;2022-10-16T08:10:57;12.68;;;7.70;;
58139;SDS011;53185;47.378;18.922;2022-10-16T08:13:24;13.50;;;7.03;;
58139;SDS011;53185;47.378;18.922;2022-10-16T08:15:53;12.88;;;7.53;;
58139;SDS011;53185;47.378;18.922;2022-10-16T08:18:20;16.58;;;7.53;;
58139;SDS011;53185;47.378;18.922;2022-10-16T08:20:47;11.93;;;7.43;;
58139;SDS011;53185;47.378;18.922;2022-10-16T08:23:14;16.60;;;7.97;;
58139;SDS011;53185;47.378;18.922;2022-10-16T08:25:41;15.25;;;8.88;;
58139;SDS011;53185;47.378;18.922;2022-10-16T08:28:09;16.17;;;8.15;;
58139;SDS011;53185;47.378;18.922;2022-10-16T08:30:37;11.73;;;7.25;;
58139;SDS011;53185;47.378;18.922;2022-10-16T08:33:04;13.57;;;7.05;;
58139;SDS011;53185;47.378;18.922;2022-10-16T08:35:32;13.20;;;6.80;;
58139;SDS011;53185;47.378;18.922;2022-10-16T08:37:59;12.50;;;6.97;;
58139;SDS011;53185;47.378;18.922;2022-10-16T08:40:28;15.40;;;7.35;;
58139;SDS011;53185;47.378;18.922;2022-10-16T08:48:11;10.98;;;7.18;;
58139;SDS011;53185;47.378;18.922;2022-10-16T08:50:43;21.10;;;7.80;;
58139;SDS011;53185;47.378;18.922;2022-10-16T08:53:21;16.00;;;7.15;;
58139;SDS011;53185;47.378;18.922;2022-10-16T08:55:51;14.82;;;7.05;;
58139;SDS011;53185;47.378;18.922;2022-10-16T08:58:20;14.57;;;7.37;;
58139;SDS011;53185;47.378;18.922;2022-10-16T09:00:51;14.35;;;8.15;;
58139;SDS011;53185;47.378;18.922;2022-10-16T09:03:31;16.12;;;7.43;;
58139;SDS011;53185;47.378;18.922;2022-10-16T09:06:22;16.55;;;7.55;;
58139;SDS011;53185;47.378;18.922;2022-10-16T09:17:27;10.70;;;6.90;;
58139;SDS011;53185;47.378;18.922;2022-10-16T09:23:17;18.23;;;7.62;;
58139;SDS011;53185;47.378;18.922;2022-10-16T09:25:47;13.90;;;6.82;;
58139;SDS011;53185;47.378;18.922;2022-10-16T09:28:16;11.40;;;7.80;;
58139;SDS011;53185;47.378;18.922;2022-10-16T09:30:44;14.82;;;9.20;;
58139;SDS011;53185;47.378;18.922;2022-10-16T09:33:12;11.00;;;7.22;;
58139;SDS011;53185;47.378;18.922;2022-10-16T09:35:42;11.27;;;6.53;;
58139;SDS011;53185;47.378;18.922;2022-10-16T09:38:30;15.40;;;7.00;;
58139;SDS011;53185;47.378;18.922;2022-10-16T09:41:08;14.50;;;6.78;;
58139;SDS011;53185;47.378;18.922;2022-10-16T09:43:52;14.55;;;7.25;;
58139;SDS011;53185;47.378;18.922;2022-10-16T09:46:22;9.93;;;6.45;;
58139;SDS011;53185;47.378;18.922;2022-10-16T09:48:54;14.57;;;8.00;;
58139;SDS011;53185;47.378;18.922;2022-10-16T09:51:32;13.07;;;7.30;;
58139;SDS011;53185;47.378;18.922;2022-10-16T09:54:15;13.40;;;7.18;;
58139;SDS011;53185;47.378;18.922;2022-10-16T09:56:46;14.75;;;7.43;;
58139;SDS011;53185;47.378;18.922;2022-10-16T09:59:19;11.98;;;6.80;;
58139;SDS011;53185;47.378;18.922;2022-10-16T10:01:51;10.35;;;6.78;;
58139;SDS011;53185;47.378;18.922;2022-10-16T10:04:20;14.85;;;7.20;;
58139;SDS011;53185;47.378;18.922;2022-10-16T10:06:52;13.90;;;7.53;;
58139;SDS011;53185;47.378;18.922;2022-10-16T10:09:22;12.90;;;6.95;;
58139;SDS011;53185;47.378;18.922;2022-10-16T10:14:23;11.70;;;6.70;;
58139;SDS011;53185;47.378;18.922;2022-10-16T10:17:27;14.00;;;7.75;;
58139;SDS011;53185;47.378;18.922;2022-10-16T10:19:58;15.20;;;7.05;;
58139;SDS011;53185;47.378;18.922;2022-10-16T10:33:48;9.20;;;6.50;;
58139;SDS011;53185;47.378;18.922;2022-10-16T10:41:54;11.60;;;5.97;;
58139;SDS011;53185;47.378;18.922;2022-10-16T10:45:16;10.95;;;6.35;;
58139;SDS011;53185;47.378;18.922;2022-10-16T10:50:48;11.77;;;6.80;;
58139;SDS011;53185;47.378;18.922;2022-10-16T10:53:24;16.00;;;6.68;;
58139;SDS011;53185;47.378;18.922;2022-10-16T11:02:18;11.80;;;6.22;;
58139;SDS011;53185;47.378;18.922;2022-10-16T11:05:32;10.60;;;5.57;;
58139;SDS011;53185;47.378;18.922;2022-10-16T11:07:49;9.82;;;5.22;;
58139;SDS011;53185;47.378;18.922;2022-10-16T11:10:27;13.20;;;5.45;;
58139;SDS011;53185;47.378;18.922;2022-10-16T11:15:51;19.83;;;7.37;;
58139;SDS011;53185;47.378;18.922;2022-10-16T11:18:31;9.23;;;5.20;;
58139;SDS011;53185;47.378;18.922;2022-10-16T11:21:11;12.02;;;5.93;;
58139;SDS011;53185;47.378;18.922;2022-10-16T11:23:44;9.02;;;5.05;;
58139;SDS011;53185;47.378;18.922;2022-10-16T11:26:25;12.05;;;6.15;;
58139;SDS011;53185;47.378;18.922;2022-10-16T11:28:55;15.88;;;5.18;;
58139;SDS011;53185;47.378;18.922;2022-10-16T11:34:05;9.95;;;5.57;;
58139;SDS011;53185;47.378;18.922;2022-10-16T11:36:49;9.32;;;5.35;;
58139;SDS011;53185;47.378;18.922;2022-10-16T11:41:49;8.32;;;4.97;;
58139;SDS011;53185;47.378;18.922;2022-10-16T11:47:22;8.52;;;4.68;;
58139;SDS011;53185;47.378;18.922;2022-10-16T11:50:17;7.93;;;4.97;;
58139;SDS011;53185;47.378;18.922;2022-10-16T11:55:41;8.55;;;5.03;;
58139;SDS011;53185;47.378;18.922;2022-10-16T11:58:19;9.75;;;4.62;;
58139;SDS011;53185;47.378;18.922;2022-10-16T12:01:01;8.65;;;4.20;;
58139;SDS011;53185;47.378;18.922;2022-10-16T12:03:39;7.70;;;4.90;;
58139;SDS011;53185;47.378;18.922;2022-10-16T12:06:47;7.60;;;4.55;;
58139;SDS011;53185;47.378;18.922;2022-10-16T12:09:27;11.77;;;4.32;;
58139;SDS011;53185;47.378;18.922;2022-10-16T12:11:56;8.95;;;4.22;;
58139;SDS011;53185;47.378;18.922;2022-10-16T12:17:24;4.80;;;3.85;;
58139;SDS011;53185;47.378;18.922;2022-10-16T12:20:18;5.30;;;4.30;;
58139;SDS011;53185;47.378;18.922;2022-10-16T12:22:58;6.75;;;4.12;;
58139;SDS011;53185;47.378;18.922;2022-10-16T12:25:32;8.80;;;4.82;;
58139;SDS011;53185;47.378;18.922;2022-10-16T12:30:33;9.27;;;4.60;;
58139;SDS011;53185;47.378;18.922;2022-10-16T12:35:31;8.13;;;4.57;;
58139;SDS011;53185;47.378;18.922;2022-10-16T12:40:54;11.52;;;5.15;;
58139;SDS011;53185;47.378;18.922;2022-10-16T12:43:26;12.40;;;5.00;;
58139;SDS011;53185;47.378;18.922;2022-10-16T12:46:02;7.20;;;4.55;;
58139;SDS011;53185;47.378;18.922;2022-10-16T12:51:25;6.03;;;4.15;;
58139;SDS011;53185;47.378;18.922;2022-10-16T13:02:39;5.70;;;3.70;;
58139;SDS011;53185;47.378;18.922;2022-10-16T13:05:20;8.65;;;4.68;;
58139;SDS011;53185;47.378;18.922;2022-10-16T13:08:03;15.73;;;10.80;;
58139;SDS011;53185;47.378;18.922;2022-10-16T13:10:40;9.27;;;5.55;;
58139;SDS011;53185;47.378;18.922;2022-10-16T13:18:30;6.45;;;3.97;;
58139;SDS011;53185;47.378;18.922;2022-10-16T13:21:09;10.55;;;4.12;;
58139;SDS011;53185;47.378;18.922;2022-10-16T13:23:48;10.15;;;5.45;;
58139;SDS011;53185;47.378;18.922;2022-10-16T13:29:17;7.72;;;4.30;;
58139;SDS011;53185;47.378;18.922;2022-10-16T13:31:45;7.28;;;4.03;;
58139;SDS011;53185;47.378;18.922;2022-10-16T13:34:20;8.63;;;5.97;;
58139;SDS011;53185;47.378;18.922;2022-10-16T13:36:51;5.35;;;3.80;;
58139;SDS011;53185;47.378;18.922;2022-10-16T13:39:23;8.18;;;4.72;;
58139;SDS011;53185;47.378;18.922;2022-10-16T13:42:26;7.10;;;4.50;;
58139;SDS011;53185;47.378;18.922;2022-10-16T13:44:54;5.78;;;4.35;;
58139;SDS011;53185;47.378;18.922;2022-10-16T13:47:23;7.75;;;4.78;;
58139;SDS011;53185;47.378;18.922;2022-10-16T13:50:05;8.85;;;4.82;;
58139;SDS011;53185;47.378;18.922;2022-10-16T13:52:36;8.52;;;5.10;;
58139;SDS011;53185;47.378;18.922;2022-10-16T13:55:14;8.80;;;4.37;;
58139;SDS011;53185;47.378;18.922;2022-10-16T13:57:43;8.90;;;4.53;;
58139;SDS011;53185;47.378;18.922;2022-10-16T14:00:23;6.37;;;3.65;;
58139;SDS011;53185;47.378;18.922;2022-10-16T14:03:07;5.50;;;4.00;;
58139;SDS011;53185;47.378;18.922;2022-10-16T14:05:45;6.72;;;4.18;;
58139;SDS011;53185;47.378;18.922;2022-10-16T14:08:15;6.90;;;4.72;;
58139;SDS011;53185;47.378;18.922;2022-10-16T14:10:42;6.93;;;4.00;;
58139;SDS011;53185;47.378;18.922;2022-10-16T14:13:13;11.02;;;5.75;;
58139;SDS011;53185;47.378;18.922;2022-10-16T14:15:45;9.60;;;5.75;;
58139;SDS011;53185;47.378;18.922;2022-10-16T14:18:16;9.68;;;4.68;;
58139;SDS011;53185;47.378;18.922;2022-10-16T14:20:45;10.85;;;5.95;;
58139;SDS011;53185;47.378;18.922;2022-10-16T14:23:23;6.37;;;4.28;;
58139;SDS011;53185;47.378;18.922;2022-10-16T14:28:40;6.30;;;4.18;;
58139;SDS011;53185;47.378;18.922;2022-10-16T14:31:24;5.62;;;3.87;;
58139;SDS011;53185;47.378;18.922;2022-10-16T14:33:52;5.10;;;3.72;;
58139;SDS011;53185;47.378;18.922;2022-10-16T14:36:20;9.30;;;4.18;;
58139;SDS011;53185;47.378;18.922;2022-10-16T14:39:33;10.40;;;6.00;;
58139;SDS011;53185;47.378;18.922;2022-10-16T14:41:45;9.60;;;4.68;;
58139;SDS011;53185;47.378;18.922;2022-10-16T14:44:13;10.27;;;5.18;;
58139;SDS011;53185;47.378;18.922;2022-10-16T14:46:44;11.70;;;4.93;;
58139;SDS011;53185;47.378;18.922;2022-10-16T14:49:16;8.93;;;4.20;;
58139;SDS011;53185;47.378;18.922;2022-10-16T14:51:44;5.45;;;3.90;;
58139;SDS011;53185;47.378;18.922;2022-10-16T14:54:13;10.75;;;4.28;;
58139;SDS011;53185;47.378;18.922;2022-10-16T14:56:51;8.85;;;4.07;;
58139;SDS011;53185;47.378;18.922;2022-10-16T15:02:15;10.32;;;6.43;;
58139;SDS011;53185;47.378;18.922;2022-10-16T15:04:47;7.72;;;4.12;;
58139;SDS011;53185;47.378;18.922;2022-10-16T15:07:14;9.23;;;4.50;;
58139;SDS011;53185;47.378;18.922;2022-10-16T15:09:41;5.15;;;4.07;;
58139;SDS011;53185;47.378;18.922;2022-10-16T15:12:15;7.43;;;3.87;;
58139;SDS011;53185;47.378;18.922;2022-10-16T15:14:42;6.35;;;3.58;;
58139;SDS011;53185;47.378;18.922;2022-10-16T15:17:10;9.10;;;4.00;;
58139;SDS011;53185;47.378;18.922;2022-10-16T15:19:37;7.87;;;3.83;;
58139;SDS011;53185;47.378;18.922;2022-10-16T15:22:04;5.78;;;3.83;;
58139;SDS011;53185;47.378;18.922;2022-10-16T15:24:31;6.85;;;3.55;;
58139;SDS011;53185;47.378;18.922;2022-10-16T15:26:58;5.40;;;3.90;;
58139;SDS011;53185;47.378;18.922;2022-10-16T15:29:25;8.95;;;5.28;;
58139;SDS011;53185;47.378;18.922;2022-10-16T15:31:52;8.65;;;5.60;;
58139;SDS011;53185;47.378;18.922;2022-10-16T15:34:19;8.88;;;4.05;;
58139;SDS011;53185;47.378;18.922;2022-10-16T15:36:46;9.93;;;5.25;;
58139;SDS011;53185;47.378;18.922;2022-10-16T15:39:14;5.30;;;4.22;;
58139;SDS011;53185;47.378;18.922;2022-10-16T15:41:43;6.83;;;3.73;;
58139;SDS011;53185;47.378;18.922;2022-10-16T15:44:11;7.70;;;4.53;;
58139;SDS011;53185;47.378;18.922;2022-10-16T15:46:41;6.32;;;4.22;;
58139;SDS011;53185;47.378;18.922;2022-10-16T15:49:11;5.93;;;4.15;;
58139;SDS011;53185;47.378;18.922;2022-10-16T15:51:42;8.25;;;4.65;;
58139;SDS011;53185;47.378;18.922;2022-10-16T15:54:09;15.85;;;8.80;;
58139;SDS011;53185;47.378;18.922;2022-10-16T15:56:36;20.27;;;13.18;;
58139;SDS011;53185;47.378;18.922;2022-10-16T15:59:06;24.77;;;12.23;;
58139;SDS011;53185;47.378;18.922;2022-10-16T16:01:36;13.43;;;6.00;;
58139;SDS011;53185;47.378;18.922;2022-10-16T16:04:04;16.60;;;5.62;;
58139;SDS011;53185;47.378;18.922;2022-10-16T16:06:45;16.60;;;6.53;;
58139;SDS011;53185;47.378;18.922;2022-10-16T16:09:13;17.98;;;6.95;;
58139;SDS011;53185;47.378;18.922;2022-10-16T16:11:43;21.90;;;10.38;;
58139;SDS011;53185;47.378;18.922;2022-10-16T16:14:13;19.58;;;10.48;;
58139;SDS011;53185;47.378;18.922;2022-10-16T16:16:41;28.08;;;9.88;;
58139;SDS011;53185;47.378;18.922;2022-10-16T16:19:11;28.98;;;10.65;;
58139;SDS011;53185;47.378;18.922;2022-10-16T16:21:41;23.35;;;9.73;;
58139;SDS011;53185;47.378;18.922;2022-10-16T16:24:11;24.12;;;8.63;;
58139;SDS011;53185;47.378;18.922;2022-10-16T16:26:37;19.62;;;10.32;;
58139;SDS011;53185;47.378;18.922;2022-10-16T16:29:13;36.28;;;12.27;;
58139;SDS011;53185;47.378;18.922;2022-10-16T16:31:41;39.50;;;14.65;;
58139;SDS011;53185;47.378;18.922;2022-10-16T16:34:08;29.95;;;17.33;;
58139;SDS011;53185;47.378;18.922;2022-10-16T16:36:36;24.00;;;12.60;;
58139;SDS011;53185;47.378;18.922;2022-10-16T16:39:03;23.02;;;12.02;;
58139;SDS011;53185;47.378;18.922;2022-10-16T16:41:30;25.88;;;11.55;;
58139;SDS011;53185;47.378;18.922;2022-10-16T16:44:05;22.58;;;12.05;;